Other Surface Observations
Issued by NWS

Home | Current Version | Previous Version | Text Only | Print | Product List | Glossary On
Versions: 1 2 3 4 5 6 7 8 9 10 11 12 13 14 15 16 17 18 19 20 21 22 23 24 25 26 27 28 29 30 31 32 33 34 35 36 37 38 39 40 41 42 43 44 45 46 47 48 49 50
000
SXUS51 KWBC 270449
OSONT
:SHEF ENCODED 6-MINUTE NOS MET DATA
:NATIONAL WATER LEVEL OBSERVATION NETWORK (NWLON)
:TA(AIR TEMP DEG F)  SLP(SEA LEVEL PRESSURE INCHES)
:UD(WIND DIRECTION WHOLE DEGREES) US(WIND SPEED MPH)
:TW(WATER TEMP DEG F) UG(WIND GUSTS MPH) WC(CONDUCTIVITY uMHOS/CM)
:XV(VISIBILITY SM)
:-9999 (MISSING VALUES)
:PROVIDED BY DOC/NOAA/NOS/CO-OPS, (301) 713-2540
:corms@noaa.gov
.E PSBM1 20221127 Z DH0436/USIRP/DIN06/    4/    3
.E PSBM1 20221127 Z DH0436/UDIRP/DIN06/  266/  284
.E PSBM1 20221127 Z DH0436/UGIRP/DIN06/    5/    5
.E CFWM1 20221127 Z DH0436/TAIRP/DIN06/   29/   28
.E CFWM1 20221127 Z DH0436/PLIRP/DIN06/29.74/29.74
.E CFWM1 20221127 Z DH0436/USIRP/DIN06/    0/    1
.E CFWM1 20221127 Z DH0436/UDIRP/DIN06/   46/   62
.E CFWM1 20221127 Z DH0436/UGIRP/DIN06/    2/    2
.E CFWM1 20221127 Z DH0436/TWIRP/DIN06/   49/   49
.A CFWM1 20221127 Z DH0436/TAIRG    29/UGIRG     2/PLIRG 29.74/UDIRG    46/USIRG     0/TWIRG    49/WCIRG -9999
.A ATGM1 20221127 Z DH0436/TAIRG    38/UGIRG     4/PLIRG 29.75/UDIRG   322/USIRG     3/TWIRG -9999/WCIRG -9999
.E CASM1 20221127 Z DH0430/TAIRG/DIN06/   43/   42
.E CASM1 20221127 Z DH0430/PLIRG/DIN06/29.73/29.73
.E CASM1 20221127 Z DH0430/USIRG/DIN06/    2/    0
.E CASM1 20221127 Z DH0430/UDIRG/DIN06/  209/  229
.E CASM1 20221127 Z DH0430/UGIRG/DIN06/    3/    3
.E CASM1 20221127 Z DH0430/TWIRG/DIN06/   47/   47
.E SEIM1 20221127 Z DH0430/TAIRG/DIN06/   43/   43
.E SEIM1 20221127 Z DH0430/PLIRG/DIN06/29.82/29.81
.E SEIM1 20221127 Z DH0430/TWIRG/DIN06/   46/   46
.E BHBM3 20221127 Z DH0436/TAIRP/DIN06/   49/   49
.E BHBM3 20221127 Z DH0436/PLIRP/DIN06/29.84/29.84
.E BHBM3 20221127 Z DH0430/TAIRG/DIN06/   49/   49
.E BHBM3 20221127 Z DH0430/PLIRG/DIN06/29.84/29.84
.E FRVM3 20221127 Z DH0436/TAIRP/DIN06/   48/   48
.E FRVM3 20221127 Z DH0436/PLIRP/DIN06/29.92/29.92
.E FRVM3 20221127 Z DH0436/TWIRP/DIN06/   47/   47
.E FRVM3 20221127 Z DH0430/TAIRG/DIN06/   48/   48
.E FRVM3 20221127 Z DH0430/PLIRG/DIN06/29.92/29.92
.E FRVM3 20221127 Z DH0430/TWIRG/DIN06/   47/   47
.E BLTM3 20221127 Z DH0436/TAIRP/DIN06/   49/   49
.E BLTM3 20221127 Z DH0436/PLIRP/DIN06/29.90/29.90
.E BLTM3 20221127 Z DH0436/USIRP/DIN06/   17/   17
.E BLTM3 20221127 Z DH0436/UDIRP/DIN06/  222/  219
.E BLTM3 20221127 Z DH0436/UGIRP/DIN06/   18/   18
.E BLTM3 20221127 Z DH0430/TAIRG/DIN06/   49/   49
.E BLTM3 20221127 Z DH0430/PLIRG/DIN06/29.90/29.90
.E BLTM3 20221127 Z DH0430/USIRG/DIN06/   16/   17
.E BLTM3 20221127 Z DH0430/UDIRG/DIN06/  222/  222
.E BLTM3 20221127 Z DH0430/UGIRG/DIN06/   17/   18
.E FRXM3 20221127 Z DH0436/TAIRP/DIN06/   48/   48
.E FRXM3 20221127 Z DH0436/XVIRP/DIN06/6.20/6.20
.E FRXM3 20221127 Z DH0430/TAIRG/DIN06/   48/   48
.E FRXM3 20221127 Z DH0430/XVIRG/DIN06/6.20/6.20
.E CHTM3 20221127 Z DH0436/TAIRP/DIN06/   47/   47
.E CHTM3 20221127 Z DH0436/PLIRP/DIN06/29.85/29.86
.E CHTM3 20221127 Z DH0436/USIRP/DIN06/    1/    4
.E CHTM3 20221127 Z DH0436/UDIRP/DIN06/  223/  230
.E CHTM3 20221127 Z DH0436/UGIRP/DIN06/    3/    7
.E CHTM3 20221127 Z DH0436/TWIRP/DIN06/   44/   44
.E CHTM3 20221127 Z DH0430/TAIRG/DIN06/   47/   47
.E CHTM3 20221127 Z DH0430/PLIRG/DIN06/29.85/29.85
.E CHTM3 20221127 Z DH0430/USIRG/DIN06/    2/    1
.E CHTM3 20221127 Z DH0430/UDIRG/DIN06/  237/  223
.E CHTM3 20221127 Z DH0430/UGIRG/DIN06/    4/    3
.E CHTM3 20221127 Z DH0430/TWIRG/DIN06/   44/   44
.E BZBM3 20221127 Z DH0436/TAIRP/DIN06/   52/   52
.E BZBM3 20221127 Z DH0436/PLIRP/DIN06/29.84/29.83
.E BZBM3 20221127 Z DH0436/TWIRP/DIN06/   49/   49
.E BZBM3 20221127 Z DH0430/TAIRG/DIN06/   52/   52
.E BZBM3 20221127 Z DH0430/PLIRG/DIN06/29.84/29.84
.E BZBM3 20221127 Z DH0430/TWIRG/DIN06/   49/   49
.E NTKM3 20221127 Z DH0436/TAIRP/DIN06/   53/   53
.E NTKM3 20221127 Z DH0436/PLIRP/DIN06/29.88/29.88
.E NTKM3 20221127 Z DH0436/USIRP/DIN06/   11/   12
.E NTKM3 20221127 Z DH0436/UDIRP/DIN06/  261/  264
.E NTKM3 20221127 Z DH0436/UGIRP/DIN06/   19/   19
.E NTKM3 20221127 Z DH0436/TWIRP/DIN06/   46/   46
.E NTKM3 20221127 Z DH0430/TAIRG/DIN06/   53/   53
.E NTKM3 20221127 Z DH0430/PLIRG/DIN06/29.88/29.88
.E NTKM3 20221127 Z DH0430/USIRG/DIN06/   11/   11
.E NTKM3 20221127 Z DH0430/UDIRG/DIN06/  256/  261
.E NTKM3 20221127 Z DH0430/UGIRG/DIN06/   19/   19
.E NTKM3 20221127 Z DH0430/TWIRG/DIN06/   46/   46
.E PRUR1 20221127 Z DH0436/TAIRP/DIN06/   49/   49
.E PRUR1 20221127 Z DH0436/XVIRP/DIN06/6.20/6.20
.A PRUR1 20221127 Z DH0436/TAIRG    49/UGIRG -9999/PLIRG -9999/UDIRG -9999/USIRG -9999/TWIRG -9999/WCIRG -9999/XVIRG 6.20
.E NWPR1 20221127 Z DH0436/TAIRP/DIN06/   51/   51
.E NWPR1 20221127 Z DH0436/PLIRP/DIN06/29.89/29.89
.E NWPR1 20221127 Z DH0436/USIRP/DIN06/    9/    9
.E NWPR1 20221127 Z DH0436/UDIRP/DIN06/  253/  263
.E NWPR1 20221127 Z DH0436/UGIRP/DIN06/   16/   14
.E NWPR1 20221127 Z DH0436/TWIRP/DIN06/   51/   51
.E NWPR1 20221127 Z DH0430/TAIRG/DIN06/   51/   51
.E NWPR1 20221127 Z DH0430/PLIRG/DIN06/29.90/29.89
.E NWPR1 20221127 Z DH0430/USIRG/DIN06/    8/    9
.E NWPR1 20221127 Z DH0430/UDIRG/DIN06/  252/  253
.E NWPR1 20221127 Z DH0430/UGIRG/DIN06/   15/   16
.E NWPR1 20221127 Z DH0430/TWIRG/DIN06/   51/   51
.E CPTR1 20221127 Z DH0436/TAIRP/DIN06/   49/   49
.E CPTR1 20221127 Z DH0436/PLIRP/DIN06/29.89/29.89
.E CPTR1 20221127 Z DH0436/USIRP/DIN06/    8/    8
.E CPTR1 20221127 Z DH0436/UDIRP/DIN06/  286/  286
.E CPTR1 20221127 Z DH0436/UGIRP/DIN06/   12/   12
.E CPTR1 20221127 Z DH0436/TWIRP/DIN06/   48/   48
.A CPTR1 20221127 Z DH0430/TAIRG    49/UGIRG    11/PLIRG 29.89/UDIRG   285/USIRG     9/TWIRG    48/WCIRG -9999
.E PTCR1 20221127 Z DH0430/TAIRG/DIN06/   48/   47
.E PTCR1 20221127 Z DH0430/PLIRG/DIN06/29.93/29.92
.E PTCR1 20221127 Z DH0430/USIRG/DIN06/    7/    5
.E PTCR1 20221127 Z DH0430/UDIRG/DIN06/  240/  256
.E PTCR1 20221127 Z DH0430/UGIRG/DIN06/   10/    9
.E PVDR1 20221127 Z DH0436/TAIRP/DIN06/   49/   50
.E PVDR1 20221127 Z DH0436/PLIRP/DIN06/29.90/29.90
.E PVDR1 20221127 Z DH0436/USIRP/DIN06/    6/    8
.E PVDR1 20221127 Z DH0436/UDIRP/DIN06/  249/  252
.E PVDR1 20221127 Z DH0436/UGIRP/DIN06/   10/   11
.E PVDR1 20221127 Z DH0436/XVIRP/DIN06/6.20/6.20
.E PVDR1 20221127 Z DH0430/TAIRG/DIN06/   50/   49
.E PVDR1 20221127 Z DH0430/PLIRG/DIN06/29.91/29.90
.E PVDR1 20221127 Z DH0430/USIRG/DIN06/    7/    6
.E PVDR1 20221127 Z DH0430/UDIRG/DIN06/  243/  249
.E PVDR1 20221127 Z DH0430/UGIRG/DIN06/   13/   10
.E PVDR1 20221127 Z DH0430/XVIRG/DIN06/6.20/6.20
.E FOXR1 20221127 Z DH0436/TAIRP/DIN06/   48/   49
.E FOXR1 20221127 Z DH0436/PLIRP/DIN06/29.83/29.83
.E FOXR1 20221127 Z DH0436/USIRP/DIN06/    2/    4
.E FOXR1 20221127 Z DH0436/UDIRP/DIN06/  235/  265
.E FOXR1 20221127 Z DH0436/UGIRP/DIN06/    7/    9
.E FOXR1 20221127 Z DH0436/TWIRP/DIN06/   48/   48
.E FOXR1 20221127 Z DH0430/TAIRG/DIN06/   48/   48
.E FOXR1 20221127 Z DH0430/PLIRG/DIN06/29.83/29.83
.E FOXR1 20221127 Z DH0430/USIRG/DIN06/    0/    2
.E FOXR1 20221127 Z DH0430/UDIRG/DIN06/  171/  235
.E FOXR1 20221127 Z DH0430/UGIRG/DIN06/    5/    7
.E FOXR1 20221127 Z DH0430/TWIRG/DIN06/   48/   48
.E QPTR1 20221127 Z DH0436/TAIRP/DIN06/   48/   48
.E QPTR1 20221127 Z DH0436/PLIRP/DIN06/29.89/29.88
.E QPTR1 20221127 Z DH0436/USIRP/DIN06/   13/   11
.E QPTR1 20221127 Z DH0436/UDIRP/DIN06/  259/  269
.E QPTR1 20221127 Z DH0436/UGIRP/DIN06/   16/   15
.E QPTR1 20221127 Z DH0436/WCIRP/DIN06/24820/24800
.E QPTR1 20221127 Z DH0436/TWIRP/DIN06/   47/   47
.A QPTR1 20221127 Z DH0430/TAIRG    48/UGIRG    15/PLIRG 29.89/UDIRG   252/USIRG    12/TWIRG    47/WCIRG 24860
.E PDVR1 20221127 Z DH0430/TAIRG/DIN06/   47/   47
.E PDVR1 20221127 Z DH0430/PLIRG/DIN06/29.89/29.89
.E PDVR1 20221127 Z DH0430/USIRG/DIN06/    6/    5
.E PDVR1 20221127 Z DH0430/UDIRG/DIN06/  261/  267
.E PDVR1 20221127 Z DH0430/UGIRG/DIN06/    9/   11
.E NLNC3 20221127 Z DH0430/TAIRG/DIN06/   47/   46
.E NLNC3 20221127 Z DH0430/PLIRG/DIN06/29.89/29.89
.E NLNC3 20221127 Z DH0430/TWIRG/DIN06/   52/   52
.E NWHC3 20221127 Z DH0436/TAIRP/DIN06/   48/   49
.E NWHC3 20221127 Z DH0436/PLIRP/DIN06/29.94/29.94
.E NWHC3 20221127 Z DH0436/USIRP/DIN06/    9/    9
.E NWHC3 20221127 Z DH0436/UDIRP/DIN06/  241/  246
.E NWHC3 20221127 Z DH0436/UGIRP/DIN06/   10/   12
.E NWHC3 20221127 Z DH0436/TWIRP/DIN06/   47/   47
.E NWHC3 20221127 Z DH0430/TAIRG/DIN06/   48/   48
.E NWHC3 20221127 Z DH0430/PLIRG/DIN06/29.93/29.94
.E NWHC3 20221127 Z DH0430/USIRG/DIN06/    6/    9
.E NWHC3 20221127 Z DH0430/UDIRG/DIN06/  234/  241
.E NWHC3 20221127 Z DH0430/UGIRG/DIN06/    9/   10
.E NWHC3 20221127 Z DH0430/TWIRG/DIN06/   47/   47
.E BRHC3 20221127 Z DH0436/TAIRP/DIN06/   48/   47
.E BRHC3 20221127 Z DH0436/PLIRP/DIN06/29.92/29.92
.E BRHC3 20221127 Z DH0436/USIRP/DIN06/    5/    5
.E BRHC3 20221127 Z DH0436/UDIRP/DIN06/  240/  242
.E BRHC3 20221127 Z DH0436/UGIRP/DIN06/    9/    8
.E BRHC3 20221127 Z DH0436/TWIRP/DIN06/   50/   50
.A BRHC3 20221127 Z DH0430/TAIRG    48/UGIRG     9/PLIRG 29.91/UDIRG   242/USIRG     4/TWIRG    50/WCIRG -9999
.E MTKN6 20221127 Z DH0436/TAIRP/DIN06/   51/   51
.E MTKN6 20221127 Z DH0436/PLIRP/DIN06/29.92/29.92
.E MTKN6 20221127 Z DH0436/TWIRP/DIN06/   50/   50
.E MTKN6 20221127 Z DH0430/TAIRG/DIN06/   52/   51
.E MTKN6 20221127 Z DH0430/PLIRG/DIN06/29.92/29.92
.E MTKN6 20221127 Z DH0430/TWIRG/DIN06/   50/   50
.E KPTN6 20221127 Z DH0436/TAIRP/DIN06/   51/   51
.E KPTN6 20221127 Z DH0436/PLIRP/DIN06/29.97/29.96
.E KPTN6 20221127 Z DH0436/USIRP/DIN06/   10/   11
.E KPTN6 20221127 Z DH0436/UDIRP/DIN06/  198/  200
.E KPTN6 20221127 Z DH0436/UGIRP/DIN06/   11/   13
.E KPTN6 20221127 Z DH0436/TWIRP/DIN06/   50/   50
.E KPTN6 20221127 Z DH0430/TAIRG/DIN06/   51/   51
.E KPTN6 20221127 Z DH0430/PLIRG/DIN06/29.96/29.97
.E KPTN6 20221127 Z DH0430/USIRG/DIN06/   10/   10
.E KPTN6 20221127 Z DH0430/UDIRG/DIN06/  198/  198
.E KPTN6 20221127 Z DH0430/UGIRG/DIN06/   12/   11
.E KPTN6 20221127 Z DH0430/TWIRG/DIN06/   50/   50
.A BATN6 20221127 Z DH0436/TAIRG    49/UGIRG -9999/PLIRG 29.98/UDIRG -9999/USIRG -9999/TWIRG    51/WCIRG -9999
.E TKPN6 20221127 Z DH0430/TAIRG/DIN06/   45/   45
.E TKPN6 20221127 Z DH0430/PLIRG/DIN06/29.92/29.92
.E TKPN6 20221127 Z DH0430/USIRG/DIN06/    3/    4
.E TKPN6 20221127 Z DH0430/UDIRG/DIN06/  191/  193
.E TKPN6 20221127 Z DH0430/UGIRG/DIN06/    5/    5
.E TKPN6 20221127 Z DH0430/TWIRG/DIN06/   47/   46
.E BGNN6 20221127 Z DH0436/TAIRP/DIN06/   47/   47
.E BGNN6 20221127 Z DH0436/PLIRP/DIN06/29.96/29.96
.E BGNN6 20221127 Z DH0436/TWIRP/DIN06/   50/   50
.A BGNN6 20221127 Z DH0430/TAIRG    47/UGIRG -9999/PLIRG 29.96/UDIRG -9999/USIRG -9999/TWIRG    50/WCIRG -9999
.E MHRN6 20221127 Z DH0436/USIRP/DIN06/   11/    9
.E MHRN6 20221127 Z DH0436/UDIRP/DIN06/  216/  207
.E MHRN6 20221127 Z DH0436/UGIRP/DIN06/   12/   11
.E MHRN6 20221127 Z DH0436/USIRG/DIN06/   11/    9
.E MHRN6 20221127 Z DH0436/UDIRG/DIN06/  216/  207
.E MHRN6 20221127 Z DH0436/UGIRG/DIN06/   12/   11
.E ROBN4 20221127 Z DH0436/TAIRP/DIN06/   49/   49
.E ROBN4 20221127 Z DH0436/PLIRP/DIN06/29.96/29.96
.E ROBN4 20221127 Z DH0436/USIRP/DIN06/   11/   11
.E ROBN4 20221127 Z DH0436/UDIRP/DIN06/  253/  258
.E ROBN4 20221127 Z DH0436/UGIRP/DIN06/   13/   13
.A ROBN4 20221127 Z DH0436/TAIRG    49/UGIRG    13/PLIRG 29.96/UDIRG   253/USIRG    11/TWIRG -9999/WCIRG -9999
.E SDHN4 20221127 Z DH0430/TAIRG/DIN06/   52/   52
.E SDHN4 20221127 Z DH0430/PLIRG/DIN06/29.99/29.99
.E SDHN4 20221127 Z DH0430/USIRG/DIN06/   16/   15
.E SDHN4 20221127 Z DH0430/UDIRG/DIN06/  264/  265
.E SDHN4 20221127 Z DH0430/UGIRG/DIN06/   19/   19
.E SDHN4 20221127 Z DH0430/TWIRG/DIN06/   46/   46
.E ACYN4 20221127 Z DH0436/TAIRP/DIN06/   49/   49
.E ACYN4 20221127 Z DH0436/PLIRP/DIN06/30.00/30.00
.E ACYN4 20221127 Z DH0436/TWIRP/DIN06/   50/   50
.E ACYN4 20221127 Z DH0430/TAIRG/DIN06/   49/   49
.E ACYN4 20221127 Z DH0430/PLIRG/DIN06/30.01/30.00
.E ACYN4 20221127 Z DH0430/TWIRG/DIN06/   50/   50
.E CMAN4 20221127 Z DH0436/TAIRP/DIN06/   50/   51
.E CMAN4 20221127 Z DH0436/PLIRP/DIN06/30.03/30.03
.E CMAN4 20221127 Z DH0436/USIRP/DIN06/   13/   13
.E CMAN4 20221127 Z DH0436/UDIRP/DIN06/  223/  225
.E CMAN4 20221127 Z DH0436/UGIRP/DIN06/   16/   15
.A CMAN4 20221127 Z DH0436/TAIRG    50/UGIRG    16/PLIRG 30.03/UDIRG   223/USIRG    13/TWIRG -9999/WCIRG -9999
.E SJSN4 20221127 Z DH0436/TAIRP/DIN06/   47/   47
.E SJSN4 20221127 Z DH0436/PLIRP/DIN06/30.02/30.02
.E SJSN4 20221127 Z DH0436/USIRP/DIN06/   15/   15
.E SJSN4 20221127 Z DH0436/UDIRP/DIN06/  206/  205
.E SJSN4 20221127 Z DH0436/UGIRP/DIN06/   17/   16
.E SJSN4 20221127 Z DH0436/TWIRP/DIN06/   48/   48
.E SJSN4 20221127 Z DH0430/TAIRG/DIN06/   47/   47
.E SJSN4 20221127 Z DH0430/PLIRG/DIN06/30.02/30.02
.E SJSN4 20221127 Z DH0430/USIRG/DIN06/   13/   15
.E SJSN4 20221127 Z DH0430/UDIRG/DIN06/  208/  206
.E SJSN4 20221127 Z DH0430/UGIRG/DIN06/   16/   17
.E SJSN4 20221127 Z DH0430/TWIRG/DIN06/   48/   48
.E BDRN4 20221127 Z DH0436/TAIRP/DIN06/   45/   44
.E BDRN4 20221127 Z DH0436/PLIRP/DIN06/29.98/29.99
.E BDRN4 20221127 Z DH0436/USIRP/DIN06/    4/    4
.E BDRN4 20221127 Z DH0436/UDIRP/DIN06/  249/  262
.E BDRN4 20221127 Z DH0436/UGIRP/DIN06/    4/    4
.E BDRN4 20221127 Z DH0436/TWIRP/DIN06/   40/   40
.E BDRN4 20221127 Z DH0430/TAIRG/DIN06/   45/   45
.E BDRN4 20221127 Z DH0430/PLIRG/DIN06/29.99/29.98
.E BDRN4 20221127 Z DH0430/USIRG/DIN06/    3/    4
.E BDRN4 20221127 Z DH0430/UDIRG/DIN06/  247/  249
.E BDRN4 20221127 Z DH0430/UGIRG/DIN06/    7/    4
.E BDRN4 20221127 Z DH0430/TWIRG/DIN06/   40/   40
.E MRCP1 20221127 Z DH0436/TAIRP/DIN06/   45/   45
.E MRCP1 20221127 Z DH0436/PLIRP/DIN06/30.01/30.01
.E MRCP1 20221127 Z DH0436/TWIRP/DIN06/   49/   49
.E MRCP1 20221127 Z DH0430/TAIRG/DIN06/   45/   45
.E MRCP1 20221127 Z DH0430/PLIRG/DIN06/30.01/30.01
.E MRCP1 20221127 Z DH0430/TWIRG/DIN06/   49/   49
.E PHBP1 20221127 Z DH0430/TAIRG/DIN06/   46/   46
.E PHBP1 20221127 Z DH0430/PLIRG/DIN06/30.00/30.00
.E PHBP1 20221127 Z DH0430/TWIRG/DIN06/   46/   46
.E BDSP1 20221127 Z DH0430/TAIRG/DIN06/   46/   46
.E BDSP1 20221127 Z DH0430/PLIRG/DIN06/30.00/30.00
.E BDSP1 20221127 Z DH0430/TWIRG/DIN06/   44/   44
.E NBLP1 20221127 Z DH0436/TAIRP/DIN06/   42/   42
.E NBLP1 20221127 Z DH0436/PLIRP/DIN06/30.01/30.01
.E NBLP1 20221127 Z DH0436/USIRP/DIN06/    4/    4
.E NBLP1 20221127 Z DH0436/UDIRP/DIN06/  241/  249
.E NBLP1 20221127 Z DH0436/UGIRP/DIN06/    5/    5
.E NBLP1 20221127 Z DH0436/TWIRP/DIN06/   40/   40
.E NBLP1 20221127 Z DH0430/TAIRG/DIN06/   39/   42
.E NBLP1 20221127 Z DH0430/PLIRG/DIN06/30.01/30.01
.E NBLP1 20221127 Z DH0430/USIRG/DIN06/    4/    4
.E NBLP1 20221127 Z DH0430/UDIRG/DIN06/  242/  241
.E NBLP1 20221127 Z DH0430/UGIRG/DIN06/    5/    5
.E NBLP1 20221127 Z DH0430/TWIRG/DIN06/   40/   40
.E DELD1 20221127 Z DH0436/TAIRP/DIN06/   46/   46
.E DELD1 20221127 Z DH0436/PLIRP/DIN06/30.01/30.01
.E DELD1 20221127 Z DH0436/USIRP/DIN06/    3/    2
.E DELD1 20221127 Z DH0436/UDIRP/DIN06/  243/  228
.E DELD1 20221127 Z DH0436/UGIRP/DIN06/    4/    4
.E DELD1 20221127 Z DH0436/TWIRP/DIN06/   48/   48
.E DELD1 20221127 Z DH0430/TAIRG/DIN06/   46/   46
.E DELD1 20221127 Z DH0430/PLIRG/DIN06/30.01/30.01
.E DELD1 20221127 Z DH0430/USIRG/DIN06/    2/    3
.E DELD1 20221127 Z DH0430/UDIRG/DIN06/  245/  243
.E DELD1 20221127 Z DH0430/UGIRG/DIN06/    3/    4
.E DELD1 20221127 Z DH0430/TWIRG/DIN06/   48/   48
.E RDYD1 20221127 Z DH0430/TAIRG/DIN06/   44/   44
.E RDYD1 20221127 Z DH0430/PLIRG/DIN06/30.00/30.00
.E RDYD1 20221127 Z DH0430/TWIRG/DIN06/   49/   49
.A BRND1 20221127 Z DH0430/TAIRG -9999/UGIRG    23/PLIRG 30.04/UDIRG   232/USIRG    17/TWIRG -9999/WCIRG -9999
.E LWSD1 20221127 Z DH0436/TAIRP/DIN06/   47/   48
.E LWSD1 20221127 Z DH0436/PLIRP/DIN06/30.05/30.04
.E LWSD1 20221127 Z DH0436/USIRP/DIN06/    8/    8
.E LWSD1 20221127 Z DH0436/UDIRP/DIN06/  227/  226
.E LWSD1 20221127 Z DH0436/UGIRP/DIN06/   11/   12
.E LWSD1 20221127 Z DH0436/WCIRP/DIN06/32800/32800
.E LWSD1 20221127 Z DH0436/TWIRP/DIN06/   50/   50
.E LWSD1 20221127 Z DH0430/TAIRG/DIN06/   47/   47
.E LWSD1 20221127 Z DH0430/PLIRG/DIN06/30.05/30.05
.E LWSD1 20221127 Z DH0430/USIRG/DIN06/    6/    8
.E LWSD1 20221127 Z DH0430/UDIRG/DIN06/  226/  227
.E LWSD1 20221127 Z DH0430/UGIRG/DIN06/   11/   11
.E LWSD1 20221127 Z DH0430/WCIRG/DIN06/32800/32800
.E LWSD1 20221127 Z DH0430/TWIRG/DIN06/   50/   50
.E OCIM2 20221127 Z DH0436/TAIRP/DIN06/   49/   49
.E OCIM2 20221127 Z DH0436/PLIRP/DIN06/30.07/30.07
.E OCIM2 20221127 Z DH0436/USIRP/DIN06/    8/    8
.E OCIM2 20221127 Z DH0436/UDIRP/DIN06/  244/  243
.E OCIM2 20221127 Z DH0436/UGIRP/DIN06/   10/   10
.E OCIM2 20221127 Z DH0436/TWIRP/DIN06/   53/   53
.E OCIM2 20221127 Z DH0430/TAIRG/DIN06/   49/   49
.E OCIM2 20221127 Z DH0430/PLIRG/DIN06/30.07/30.07
.E OCIM2 20221127 Z DH0430/USIRG/DIN06/    8/    8
.E OCIM2 20221127 Z DH0430/UDIRG/DIN06/  243/  244
.E OCIM2 20221127 Z DH0430/UGIRG/DIN06/   10/   10
.E OCIM2 20221127 Z DH0430/TWIRG/DIN06/   53/   53
.E BISM2 20221127 Z DH0436/TAIRP/DIN06/   50/   50
.E BISM2 20221127 Z DH0436/PLIRP/DIN06/30.06/30.06
.E BISM2 20221127 Z DH0436/USIRP/DIN06/   10/   10
.E BISM2 20221127 Z DH0436/UDIRP/DIN06/  201/  201
.E BISM2 20221127 Z DH0436/UGIRP/DIN06/   12/   11
.E BISM2 20221127 Z DH0436/TWIRP/DIN06/   48/   48
.A BISM2 20221127 Z DH0430/TAIRG    50/UGIRG    11/PLIRG 30.06/UDIRG   203/USIRG    10/TWIRG    48/WCIRG -9999
.E CAMM2 20221127 Z DH0430/TAIRG/DIN06/   48/   48
.E CAMM2 20221127 Z DH0430/PLIRG/DIN06/30.05/30.05
.E CAMM2 20221127 Z DH0430/USIRG/DIN06/    6/    6
.E CAMM2 20221127 Z DH0430/UDIRG/DIN06/  198/  205
.E CAMM2 20221127 Z DH0430/UGIRG/DIN06/    8/    8
.E CAMM2 20221127 Z DH0430/TWIRG/DIN06/   48/   48
.A TCBM2 20221127 Z DH0430/TAIRG    49/UGIRG    12/PLIRG 30.02/UDIRG   164/USIRG     7/TWIRG    49/WCIRG -9999
.E CHCM2 20221127 Z DH0436/TAIRP/DIN06/   38/   38
.E CHCM2 20221127 Z DH0436/PLIRP/DIN06/30.02/30.02
.E CHCM2 20221127 Z DH0436/USIRP/DIN06/    0/    0
.E CHCM2 20221127 Z DH0436/UDIRP/DIN06/  359/  342
.E CHCM2 20221127 Z DH0436/UGIRP/DIN06/    1/    0
.E CHCM2 20221127 Z DH0436/WCIRP/DIN06/ 1450/ 1430
.E CHCM2 20221127 Z DH0436/TWIRP/DIN06/   44/   44
.A CHCM2 20221127 Z DH0430/TAIRG    38/UGIRG     0/PLIRG 30.02/UDIRG   177/USIRG     0/TWIRG    44/WCIRG  1480
.E BLTM2 20221127 Z DH0436/TAIRP/DIN06/   44/   44
.E BLTM2 20221127 Z DH0436/PLIRP/DIN06/30.00/30.00
.E BLTM2 20221127 Z DH0436/USIRP/DIN06/    2/    2
.E BLTM2 20221127 Z DH0436/UDIRP/DIN06/  241/  236
.E BLTM2 20221127 Z DH0436/UGIRP/DIN06/    4/    3
.E BLTM2 20221127 Z DH0436/WCIRP/DIN06/18590/18470
.E BLTM2 20221127 Z DH0436/TWIRP/DIN06/   51/   51
.E BLTM2 20221127 Z DH0430/TAIRG/DIN06/   44/   44
.E BLTM2 20221127 Z DH0430/PLIRG/DIN06/30.00/30.00
.E BLTM2 20221127 Z DH0430/USIRG/DIN06/    3/    2
.E BLTM2 20221127 Z DH0430/UDIRG/DIN06/  243/  241
.E BLTM2 20221127 Z DH0430/UGIRG/DIN06/    4/    4
.E BLTM2 20221127 Z DH0430/WCIRG/DIN06/18620/18590
.E BLTM2 20221127 Z DH0430/TWIRG/DIN06/   51/   51
.E FSKM2 20221127 Z DH0430/PLIRG/DIN06/30.02/30.02
.E FSKM2 20221127 Z DH0430/USIRG/DIN06/    0/    0
.E FSKM2 20221127 Z DH0430/UDIRG/DIN06/  270/  270
.E FSKM2 20221127 Z DH0430/UGIRG/DIN06/    0/    0
.E FSNM2 20221127 Z DH0424/TAIRP/DIN06/   50/   49
.E FSNM2 20221127 Z DH0424/PLIRP/DIN06/30.00/30.00
.E FSNM2 20221127 Z DH0424/USIRP/DIN06/    4/    4
.E FSNM2 20221127 Z DH0424/UDIRP/DIN06/  199/  200
.E FSNM2 20221127 Z DH0424/UGIRP/DIN06/    6/    5
.E CPVM2 20221127 Z DH0436/TAIRP/DIN06/   51/   51
.E CPVM2 20221127 Z DH0436/XVIRP/DIN06/6.20/6.20
.E CPVM2 20221127 Z DH0430/TAIRG/DIN06/   51/   51
.E CPVM2 20221127 Z DH0430/XVIRG/DIN06/6.20/6.20
.E APAM2 20221127 Z DH0436/TAIRP/DIN06/   48/   48
.E APAM2 20221127 Z DH0436/PLIRP/DIN06/30.01/30.01
.E APAM2 20221127 Z DH0436/USIRP/DIN06/    2/    3
.E APAM2 20221127 Z DH0436/UDIRP/DIN06/  128/  131
.E APAM2 20221127 Z DH0436/UGIRP/DIN06/    4/    3
.E APAM2 20221127 Z DH0436/TWIRP/DIN06/   53/   53
.E COVM2 20221127 Z DH0430/TAIRG/DIN06/   51/   51
.E COVM2 20221127 Z DH0430/PLIRG/DIN06/30.06/30.05
.E COVM2 20221127 Z DH0430/USIRG/DIN06/   17/   15
.E COVM2 20221127 Z DH0430/UDIRG/DIN06/  146/  143
.E COVM2 20221127 Z DH0430/UGIRG/DIN06/   19/   19
.E SLIM2 20221127 Z DH0436/TAIRP/DIN06/   49/   49
.E SLIM2 20221127 Z DH0436/PLIRP/DIN06/30.01/30.00
.E SLIM2 20221127 Z DH0436/USIRP/DIN06/    7/    7
.E SLIM2 20221127 Z DH0436/UDIRP/DIN06/  201/  202
.E SLIM2 20221127 Z DH0436/UGIRP/DIN06/   10/    9
.E SLIM2 20221127 Z DH0436/TWIRP/DIN06/   53/   53
.E SLIM2 20221127 Z DH0430/TAIRG/DIN06/   49/   49
.E SLIM2 20221127 Z DH0430/PLIRG/DIN06/30.01/30.01
.E SLIM2 20221127 Z DH0430/USIRG/DIN06/    8/    7
.E SLIM2 20221127 Z DH0430/UDIRG/DIN06/  203/  201
.E SLIM2 20221127 Z DH0430/UGIRG/DIN06/    9/   10
.E SLIM2 20221127 Z DH0430/TWIRG/DIN06/   53/   53
.E PPTM2 20221127 Z DH0436/USIRP/DIN06/    9/    8
.E PPTM2 20221127 Z DH0436/UDIRP/DIN06/  227/  224
.E PPTM2 20221127 Z DH0436/UGIRP/DIN06/   11/   11
.E PPTM2 20221127 Z DH0430/USIRG/DIN06/    9/    9
.E PPTM2 20221127 Z DH0430/UDIRG/DIN06/  233/  227
.E PPTM2 20221127 Z DH0430/UGIRG/DIN06/   11/   11
.E WASD2 20221127 Z DH0430/TAIRG/DIN06/   47/   47
.E WASD2 20221127 Z DH0430/PLIRG/DIN06/30.01/30.01
.E WASD2 20221127 Z DH0430/USIRG/DIN06/    0/    1
.E WASD2 20221127 Z DH0430/UDIRG/DIN06/  121/  165
.E WASD2 20221127 Z DH0430/UGIRG/DIN06/    1/    2
.E WASD2 20221127 Z DH0430/TWIRG/DIN06/   45/   45
.A WAHV2 20221127 Z DH0436/TAIRG    46/UGIRG     3/PLIRG 30.06/UDIRG   225/USIRG     2/TWIRG    50/WCIRG -9999
.E KPTV2 20221127 Z DH0436/USIRP/DIN06/   10/   11
.E KPTV2 20221127 Z DH0436/UDIRP/DIN06/  204/  206
.E KPTV2 20221127 Z DH0436/UGIRP/DIN06/   13/   13
.E KPTV2 20221127 Z DH0436/TWIRP/DIN06/   57/   57
.A KPTV2 20221127 Z DH0436/TAIRG -9999/UGIRG    13/PLIRG -9999/UDIRG   204/USIRG    10/TWIRG    57/WCIRG -9999
.E RPLV2 20221127 Z DH0436/PLIRP/DIN06/30.09/30.09
.E RPLV2 20221127 Z DH0436/USIRP/DIN06/   14/   16
.E RPLV2 20221127 Z DH0436/UDIRP/DIN06/  195/  191
.E RPLV2 20221127 Z DH0436/UGIRP/DIN06/   17/   17
.E NCDV2 20221127 Z DH0436/TAIRP/DIN06/   51/   51
.E NCDV2 20221127 Z DH0436/PLIRP/DIN06/30.00/30.00
.E NCDV2 20221127 Z DH0436/USIRP/DIN06/    4/    6
.E NCDV2 20221127 Z DH0436/UDIRP/DIN06/  211/  215
.E NCDV2 20221127 Z DH0436/UGIRP/DIN06/    6/    7
.E NCDV2 20221127 Z DH0436/TWIRP/DIN06/   52/   52
.A NCDV2 20221127 Z DH0430/TAIRG    51/UGIRG     5/PLIRG 30.01/UDIRG   220/USIRG     4/TWIRG    52/WCIRG -9999
.E LWTV2 20221127 Z DH0436/TAIRP/DIN06/   49/   49
.E LWTV2 20221127 Z DH0436/PLIRP/DIN06/30.05/30.05
.E LWTV2 20221127 Z DH0436/USIRP/DIN06/    9/   10
.E LWTV2 20221127 Z DH0436/UDIRP/DIN06/  225/  226
.E LWTV2 20221127 Z DH0436/UGIRP/DIN06/   11/   12
.E LWTV2 20221127 Z DH0436/WCIRP/DIN06/19210/19150
.E LWTV2 20221127 Z DH0436/TWIRP/DIN06/   49/   49
.E LWTV2 20221127 Z DH0430/TAIRG/DIN06/   49/   49
.E LWTV2 20221127 Z DH0430/PLIRG/DIN06/30.06/30.05
.E LWTV2 20221127 Z DH0430/USIRG/DIN06/   10/    9
.E LWTV2 20221127 Z DH0430/UDIRG/DIN06/  222/  225
.E LWTV2 20221127 Z DH0430/UGIRG/DIN06/   12/   11
.E LWTV2 20221127 Z DH0430/WCIRG/DIN06/19220/19210
.E LWTV2 20221127 Z DH0430/TWIRG/DIN06/   49/   49
.E YKRV2 20221127 Z DH0436/TAIRP/DIN06/   51/   51
.E YKRV2 20221127 Z DH0436/PLIRP/DIN06/30.07/30.07
.E YKRV2 20221127 Z DH0436/USIRP/DIN06/   12/   12
.E YKRV2 20221127 Z DH0436/UDIRP/DIN06/  205/  206
.E YKRV2 20221127 Z DH0436/UGIRP/DIN06/   13/   14
.A YKRV2 20221127 Z DH0436/TAIRG    51/UGIRG    13/PLIRG 30.07/UDIRG   205/USIRG    12/TWIRG -9999/WCIRG -9999
.E YKTV2 20221127 Z DH0430/TAIRG/DIN06/   49/   49
.E YKTV2 20221127 Z DH0430/PLIRG/DIN06/30.06/30.06
.E YKTV2 20221127 Z DH0430/USIRG/DIN06/   11/   12
.E YKTV2 20221127 Z DH0430/UDIRG/DIN06/  210/  214
.E YKTV2 20221127 Z DH0430/UGIRG/DIN06/   14/   16
.E YKTV2 20221127 Z DH0430/WCIRG/DIN06/20090/20120
.E YKTV2 20221127 Z DH0430/TWIRG/DIN06/   54/   54
.E DOMV2 20221127 Z DH0436/TAIRP/DIN06/   50/   50
.E DOMV2 20221127 Z DH0436/PLIRP/DIN06/30.09/30.09
.E DOMV2 20221127 Z DH0436/USIRP/DIN06/    9/   11
.E DOMV2 20221127 Z DH0436/UDIRP/DIN06/  210/  220
.E DOMV2 20221127 Z DH0436/UGIRP/DIN06/   10/   14
.E DOMV2 20221127 Z DH0430/TAIRG/DIN06/   49/   50
.E DOMV2 20221127 Z DH0430/PLIRG/DIN06/30.09/30.09
.E DOMV2 20221127 Z DH0430/USIRG/DIN06/    8/    9
.E DOMV2 20221127 Z DH0430/UDIRG/DIN06/  207/  210
.E DOMV2 20221127 Z DH0430/UGIRG/DIN06/    9/   10
.E CRYV2 20221127 Z DH0436/TAIRP/DIN06/   47/   47
.E CRYV2 20221127 Z DH0436/PLIRP/DIN06/30.08/30.09
.E CRYV2 20221127 Z DH0436/USIRP/DIN06/    8/    8
.E CRYV2 20221127 Z DH0436/UDIRP/DIN06/  186/  194
.E CRYV2 20221127 Z DH0436/UGIRP/DIN06/   11/   10
.E CRYV2 20221127 Z DH0430/TAIRG/DIN06/   47/   47
.E CRYV2 20221127 Z DH0430/PLIRG/DIN06/30.08/30.08
.E CRYV2 20221127 Z DH0430/USIRG/DIN06/    7/    8
.E CRYV2 20221127 Z DH0430/UDIRG/DIN06/  190/  186
.E CRYV2 20221127 Z DH0430/UGIRG/DIN06/   10/   11
.E SWPV2 20221127 Z DH0436/PLIRP/DIN06/30.06/30.07
.E SWPV2 20221127 Z DH0436/WCIRP/DIN06/28080/27960
.E SWPV2 20221127 Z DH0436/TWIRP/DIN06/   54/   54
.E SWPV2 20221127 Z DH0430/PLIRG/DIN06/30.06/30.06
.E SWPV2 20221127 Z DH0430/WCIRG/DIN06/28110/28080
.E SWPV2 20221127 Z DH0430/TWIRG/DIN06/   54/   54
.E WDSV2 20221127 Z DH0436/TAIRP/DIN06/   51/   51
.E WDSV2 20221127 Z DH0436/PLIRP/DIN06/30.08/30.08
.E WDSV2 20221127 Z DH0436/USIRP/DIN06/   12/   13
.E WDSV2 20221127 Z DH0436/UDIRP/DIN06/  201/  204
.E WDSV2 20221127 Z DH0436/UGIRP/DIN06/   15/   16
.E WDSV2 20221127 Z DH0430/TAIRG/DIN06/   51/   51
.E WDSV2 20221127 Z DH0430/PLIRG/DIN06/30.09/30.08
.E WDSV2 20221127 Z DH0430/USIRG/DIN06/   13/   12
.E WDSV2 20221127 Z DH0430/UDIRG/DIN06/  196/  201
.E WDSV2 20221127 Z DH0430/UGIRG/DIN06/   16/   15
.E CHBV2 20221127 Z DH0436/TAIRP/DIN06/   52/   52
.E CHBV2 20221127 Z DH0436/PLIRP/DIN06/30.06/30.06
.E CHBV2 20221127 Z DH0436/USIRP/DIN06/   13/   13
.E CHBV2 20221127 Z DH0436/UDIRP/DIN06/  214/  216
.E CHBV2 20221127 Z DH0436/UGIRP/DIN06/   16/   15
.A CHBV2 20221127 Z DH0430/TAIRG    52/UGIRG    15/PLIRG 30.06/UDIRG   213/USIRG    13/TWIRG -9999/WCIRG -9999
.E CHYV2 20221127 Z DH0436/TAIRP/DIN06/   48/   48
.E CHYV2 20221127 Z DH0436/PLIRP/DIN06/30.09/30.09
.E CHYV2 20221127 Z DH0436/USIRP/DIN06/   11/   11
.E CHYV2 20221127 Z DH0436/UDIRP/DIN06/  198/  198
.E CHYV2 20221127 Z DH0436/UGIRP/DIN06/   16/   15
.E MNPV2 20221127 Z DH0436/TAIRP/DIN06/   44/   44
.E MNPV2 20221127 Z DH0436/PLIRP/DIN06/30.09/30.09
.E MNPV2 20221127 Z DH0436/USIRP/DIN06/    3/    4
.E MNPV2 20221127 Z DH0436/UDIRP/DIN06/  175/  188
.E MNPV2 20221127 Z DH0436/UGIRP/DIN06/    5/    6
.E MNPV2 20221127 Z DH0436/WCIRP/DIN06/24080/24090
.E MNPV2 20221127 Z DH0436/TWIRP/DIN06/   56/   56
.A MNPV2 20221127 Z DH0430/TAIRG    44/UGIRG     6/PLIRG 30.09/UDIRG   174/USIRG     3/TWIRG    56/WCIRG 24170
.E DUKN7 20221127 Z DH0436/TAIRP/DIN06/   51/   51
.E DUKN7 20221127 Z DH0436/PLIRP/DIN06/30.11/30.10
.E DUKN7 20221127 Z DH0436/USIRP/DIN06/    9/   10
.E DUKN7 20221127 Z DH0436/UDIRP/DIN06/  204/  203
.E DUKN7 20221127 Z DH0436/UGIRP/DIN06/   11/   11
.E DUKN7 20221127 Z DH0436/TWIRP/DIN06/   57/   57
.A DUKN7 20221127 Z DH0436/TAIRG    51/UGIRG    11/PLIRG 30.11/UDIRG   204/USIRG     9/TWIRG    57/WCIRG -9999
.A ORIN7 20221127 Z DH0430/TAIRG    54/UGIRG    12/PLIRG 30.13/UDIRG   221/USIRG    11/TWIRG    58/WCIRG -9999
.E HCGN7 20221127 Z DH0436/TAIRP/DIN06/   56/   56
.E HCGN7 20221127 Z DH0436/PLIRP/DIN06/30.14/30.14
.E HCGN7 20221127 Z DH0436/USIRP/DIN06/    4/    4
.E HCGN7 20221127 Z DH0436/UDIRP/DIN06/  214/  216
.E HCGN7 20221127 Z DH0436/UGIRP/DIN06/    6/    5
.E HCGN7 20221127 Z DH0436/TWIRP/DIN06/   59/   59
.E HCGN7 20221127 Z DH0430/TAIRG/DIN06/   55/   56
.E HCGN7 20221127 Z DH0430/PLIRG/DIN06/30.14/30.14
.E HCGN7 20221127 Z DH0430/USIRG/DIN06/    4/    4
.E HCGN7 20221127 Z DH0430/UDIRG/DIN06/  224/  214
.E HCGN7 20221127 Z DH0430/UGIRG/DIN06/    5/    6
.E HCGN7 20221127 Z DH0430/TWIRG/DIN06/   59/   59
.E BFTN7 20221127 Z DH0436/TAIRP/DIN06/   52/   52
.E BFTN7 20221127 Z DH0436/PLIRP/DIN06/30.11/30.11
.E BFTN7 20221127 Z DH0436/USIRP/DIN06/    0/    2
.E BFTN7 20221127 Z DH0436/UDIRP/DIN06/   35/  359
.E BFTN7 20221127 Z DH0436/UGIRP/DIN06/    1/    2
.E BFTN7 20221127 Z DH0436/TWIRP/DIN06/   61/   61
.E BFTN7 20221127 Z DH0430/TAIRG/DIN06/   52/   52
.E BFTN7 20221127 Z DH0430/PLIRG/DIN06/30.11/30.11
.E BFTN7 20221127 Z DH0430/USIRG/DIN06/    1/    0
.E BFTN7 20221127 Z DH0430/UDIRG/DIN06/   98/   35
.E BFTN7 20221127 Z DH0430/UGIRG/DIN06/    1/    2
.E BFTN7 20221127 Z DH0430/TWIRG/DIN06/   61/   61
.E WLON7 20221127 Z DH0436/TAIRP/DIN06/   49/   49
.E WLON7 20221127 Z DH0436/PLIRP/DIN06/30.07/30.07
.E WLON7 20221127 Z DH0436/TWIRP/DIN06/   59/   59
.E WLON7 20221127 Z DH0430/TAIRG/DIN06/   49/   49
.E WLON7 20221127 Z DH0430/PLIRG/DIN06/30.07/30.07
.E WLON7 20221127 Z DH0430/TWIRG/DIN06/   59/   59
.E JMPN7 20221127 Z DH0436/TAIRP/DIN06/   64/   64
.E JMPN7 20221127 Z DH0436/PLIRP/DIN06/30.09/30.08
.E JMPN7 20221127 Z DH0436/USIRP/DIN06/   13/   13
.E JMPN7 20221127 Z DH0436/UDIRP/DIN06/  121/  121
.E JMPN7 20221127 Z DH0436/UGIRP/DIN06/   15/   15
.E JMPN7 20221127 Z DH0436/TWIRP/DIN06/   62/   62
.E JMPN7 20221127 Z DH0430/TAIRG/DIN06/   64/   64
.E JMPN7 20221127 Z DH0430/PLIRG/DIN06/30.09/30.09
.E JMPN7 20221127 Z DH0430/USIRG/DIN06/   13/   13
.E JMPN7 20221127 Z DH0430/UDIRG/DIN06/  123/  121
.E JMPN7 20221127 Z DH0430/UGIRG/DIN06/   15/   15
.E JMPN7 20221127 Z DH0430/TWIRG/DIN06/   62/   62
.E MROS1 20221127 Z DH0436/TAIRP/DIN06/   59/   60
.E MROS1 20221127 Z DH0436/PLIRP/DIN06/30.09/30.09
.E MROS1 20221127 Z DH0430/TAIRG/DIN06/   59/   59
.E MROS1 20221127 Z DH0430/PLIRG/DIN06/30.10/30.09
.E MROS1 20221127 Z DH0430/USIRG/DIN06/   11/   11
.E MROS1 20221127 Z DH0430/UDIRG/DIN06/   55/   58
.E MROS1 20221127 Z DH0430/UGIRG/DIN06/   12/   11
.E CHTS1 20221127 Z DH0436/TAIRP/DIN06/   61/   61
.E CHTS1 20221127 Z DH0436/PLIRP/DIN06/29.99/29.99
.E CHTS1 20221127 Z DH0436/USIRP/DIN06/    2/    4
.E CHTS1 20221127 Z DH0436/UDIRP/DIN06/  344/  323
.E CHTS1 20221127 Z DH0436/UGIRP/DIN06/    5/    5
.E CHTS1 20221127 Z DH0436/TWIRP/DIN06/   61/   61
.E CHTS1 20221127 Z DH0430/TAIRG/DIN06/   61/   61
.E CHTS1 20221127 Z DH0430/PLIRG/DIN06/30.00/29.99
.E CHTS1 20221127 Z DH0430/USIRG/DIN06/    5/    2
.E CHTS1 20221127 Z DH0430/UDIRG/DIN06/    2/  344
.E CHTS1 20221127 Z DH0430/UGIRG/DIN06/    6/    5
.E CHTS1 20221127 Z DH0430/TWIRG/DIN06/   60/   61
.E FPKG1 20221127 Z DH0436/PLIRP/DIN06/30.03/30.03
.E FPKG1 20221127 Z DH0436/USIRP/DIN06/    8/    6
.E FPKG1 20221127 Z DH0436/UDIRP/DIN06/   81/   75
.E FPKG1 20221127 Z DH0436/UGIRP/DIN06/    9/    8
.E FPKG1 20221127 Z DH0436/TWIRP/DIN06/   62/   62
.E FPKG1 20221127 Z DH0430/TAIRG/DIN06/   62/   62
.E FPKG1 20221127 Z DH0430/PLIRG/DIN06/30.03/30.03
.E FPKG1 20221127 Z DH0430/USIRG/DIN06/    7/    8
.E FPKG1 20221127 Z DH0430/UDIRG/DIN06/   79/   81
.E FPKG1 20221127 Z DH0430/UGIRG/DIN06/   11/    9
.E FPKG1 20221127 Z DH0430/TWIRG/DIN06/   62/   62
.E KBMG1 20221127 Z DH0430/TAIRG/DIN06/   62/   62
.E KBMG1 20221127 Z DH0430/PLIRG/DIN06/30.01/30.01
.E FRDF1 20221127 Z DH0436/TAIRP/DIN06/   64/   64
.E FRDF1 20221127 Z DH0436/PLIRP/DIN06/30.01/30.00
.E FRDF1 20221127 Z DH0436/TWIRP/DIN06/   63/   63
.E FRDF1 20221127 Z DH0430/TAIRG/DIN06/   65/   64
.E FRDF1 20221127 Z DH0430/PLIRG/DIN06/30.01/30.01
.E FRDF1 20221127 Z DH0430/USIRG/DIN06/-9999/    0
.E FRDF1 20221127 Z DH0430/UDIRG/DIN06/-9999/  110
.E FRDF1 20221127 Z DH0430/UGIRG/DIN06/-9999/    1
.E FRDF1 20221127 Z DH0430/TWIRG/DIN06/   63/   63
.A NFDF1 20221127 Z DH0436/TAIRG    64/UGIRG     3/PLIRG 30.00/UDIRG    87/USIRG     2/TWIRG -9999/WCIRG -9999/XVIRG 4.28
.E MYPF1 20221127 Z DH0436/TAIRP/DIN06/   64/   64
.E MYPF1 20221127 Z DH0436/PLIRP/DIN06/30.01/30.02
.E MYPF1 20221127 Z DH0436/USIRP/DIN06/    1/    0
.E MYPF1 20221127 Z DH0436/UDIRP/DIN06/   84/   98
.E MYPF1 20221127 Z DH0436/UGIRP/DIN06/    2/    2
.E MYPF1 20221127 Z DH0436/WCIRP/DIN06/50190/50260
.E MYPF1 20221127 Z DH0436/TWIRP/DIN06/   64/   64
.E MYPF1 20221127 Z DH0430/TAIRG/DIN06/   64/   64
.E MYPF1 20221127 Z DH0430/PLIRG/DIN06/30.02/30.01
.E MYPF1 20221127 Z DH0430/USIRG/DIN06/    1/    1
.E MYPF1 20221127 Z DH0430/UDIRG/DIN06/   81/   84
.E MYPF1 20221127 Z DH0430/UGIRG/DIN06/    1/    2
.E MYPF1 20221127 Z DH0430/WCIRG/DIN06/50150/50190
.E MYPF1 20221127 Z DH0430/TWIRG/DIN06/   64/   64
.E DMSF1 20221127 Z DH0436/WCIRP/DIN06/13960/15160
.E DMSF1 20221127 Z DH0436/TWIRP/DIN06/   65/   65
.A DMSF1 20221127 Z DH0436/TAIRG -9999/UGIRG -9999/PLIRG -9999/UDIRG -9999/USIRG -9999/TWIRG    65/WCIRG 13960
.E LTJF1 20221127 Z DH0436/TAIRP/DIN06/   64/   64
.A LTJF1 20221127 Z DH0430/TAIRG    64/UGIRG -9999/PLIRG -9999/UDIRG -9999/USIRG -9999/TWIRG -9999/WCIRG -9999
.E JXUF1 20221127 Z DH0436/WCIRP/DIN06/ 1900/ 2160
.E JXUF1 20221127 Z DH0436/TWIRP/DIN06/   64/   64
.A JXUF1 20221127 Z DH0436/TAIRG -9999/UGIRG -9999/PLIRG -9999/UDIRG -9999/USIRG -9999/TWIRG    64/WCIRG  1900
.E BKBF1 20221127 Z DH0436/TAIRP/DIN06/   66/   66
.E BKBF1 20221127 Z DH0436/PLIRP/DIN06/30.00/30.00
.E BKBF1 20221127 Z DH0436/USIRP/DIN06/    2/    2
.E BKBF1 20221127 Z DH0436/UDIRP/DIN06/  148/  149
.E BKBF1 20221127 Z DH0436/UGIRP/DIN06/    3/    3
.A BKBF1 20221127 Z DH0436/TAIRG    66/UGIRG     3/PLIRG 30.00/UDIRG   148/USIRG     2/TWIRG -9999/WCIRG -9999
.E TRDF1 20221127 Z DH0436/TAIRP/DIN06/   73/   73
.E TRDF1 20221127 Z DH0436/PLIRP/DIN06/29.99/29.99
.E TRDF1 20221127 Z DH0436/USIRP/DIN06/    5/    4
.E TRDF1 20221127 Z DH0436/UDIRP/DIN06/  175/  176
.E TRDF1 20221127 Z DH0436/UGIRP/DIN06/    6/    6
.E TRDF1 20221127 Z DH0436/TWIRP/DIN06/   76/   76
.E TRDF1 20221127 Z DH0430/TAIRG/DIN06/   73/   73
.E TRDF1 20221127 Z DH0430/PLIRG/DIN06/29.99/29.99
.E TRDF1 20221127 Z DH0430/USIRG/DIN06/    4/    5
.E TRDF1 20221127 Z DH0430/UDIRG/DIN06/  179/  175
.E TRDF1 20221127 Z DH0430/UGIRG/DIN06/    5/    6
.E TRDF1 20221127 Z DH0430/TWIRG/DIN06/   76/   76
.E LKWF1 20221127 Z DH0430/TAIRG/DIN06/   80/   80
.E LKWF1 20221127 Z DH0430/PLIRG/DIN06/30.03/30.03
.E LKWF1 20221127 Z DH0430/USIRG/DIN06/   14/   14
.E LKWF1 20221127 Z DH0430/UDIRG/DIN06/  155/  153
.E LKWF1 20221127 Z DH0430/UGIRG/DIN06/   16/   17
.E LKWF1 20221127 Z DH0430/TWIRG/DIN06/   82/   82
.E PEGF1 20221127 Z DH0436/TAIRP/DIN06/   81/   81
.E PEGF1 20221127 Z DH0436/PLIRP/DIN06/30.06/30.06
.E PEGF1 20221127 Z DH0436/USIRP/DIN06/   12/   11
.E PEGF1 20221127 Z DH0436/UDIRP/DIN06/  124/  117
.E PEGF1 20221127 Z DH0436/UGIRP/DIN06/   13/   13
.E PEGF1 20221127 Z DH0436/TWIRP/DIN06/   93/   92
.E PEGF1 20221127 Z DH0430/TAIRG/DIN06/   81/   81
.E PEGF1 20221127 Z DH0430/PLIRG/DIN06/30.07/30.06
.E PEGF1 20221127 Z DH0430/USIRG/DIN06/   11/   12
.E PEGF1 20221127 Z DH0430/UDIRG/DIN06/  117/  124
.E PEGF1 20221127 Z DH0430/UGIRG/DIN06/   14/   13
.E PEGF1 20221127 Z DH0430/TWIRG/DIN06/   92/   93
.E VAKF1 20221127 Z DH0436/TAIRP/DIN06/   86/   86
.E VAKF1 20221127 Z DH0436/PLIRP/DIN06/30.06/30.06
.E VAKF1 20221127 Z DH0436/USIRP/DIN06/    6/    6
.E VAKF1 20221127 Z DH0436/UDIRP/DIN06/  106/  116
.E VAKF1 20221127 Z DH0436/UGIRP/DIN06/    8/    8
.E VAKF1 20221127 Z DH0436/TWIRP/DIN06/   81/   81
.E VAKF1 20221127 Z DH0430/TAIRG/DIN06/   86/   86
.E VAKF1 20221127 Z DH0430/PLIRG/DIN06/30.06/30.06
.E VAKF1 20221127 Z DH0430/USIRG/DIN06/    5/    6
.E VAKF1 20221127 Z DH0430/UDIRG/DIN06/  106/  106
.E VAKF1 20221127 Z DH0430/UGIRG/DIN06/    7/    8
.E VAKF1 20221127 Z DH0430/TWIRG/DIN06/   81/   81
.E VCAF1 20221127 Z DH0436/TAIRP/DIN06/   80/   80
.E VCAF1 20221127 Z DH0436/PLIRP/DIN06/29.99/29.99
.E VCAF1 20221127 Z DH0436/USIRP/DIN06/    6/    5
.E VCAF1 20221127 Z DH0436/UDIRP/DIN06/  133/  137
.E VCAF1 20221127 Z DH0436/UGIRP/DIN06/   11/   13
.E VCAF1 20221127 Z DH0436/TWIRP/DIN06/   82/   82
.A VCAF1 20221127 Z DH0436/TAIRG    80/UGIRG    11/PLIRG 29.99/UDIRG   133/USIRG     6/TWIRG    82/WCIRG -9999
.E KYWF1 20221127 Z DH0436/TAIRP/DIN06/   80/   80
.E KYWF1 20221127 Z DH0436/TWIRP/DIN06/   81/   81
.E KYWF1 20221127 Z DH0430/TAIRG/DIN06/   80/   80
.E KYWF1 20221127 Z DH0430/TWIRG/DIN06/   81/   81



USA.gov is the U.S. government's official web portal to all federal, state and local government web resources and services.